createdAt,value
2018-05-29T00:00:16.905Z,10.27
2018-05-29T00:02:45.175Z,10.27
2018-05-29T00:05:13.436Z,10.47
2018-05-29T00:07:41.126Z,11.33
2018-05-29T00:10:10.319Z,10.03
2018-05-29T00:12:38.561Z,11.13
2018-05-29T00:15:06.141Z,10.60
2018-05-29T00:17:33.697Z,10.20
2018-05-29T00:20:01.795Z,10.23
2018-05-29T00:22:30.056Z,10.87
2018-05-29T00:24:58.310Z,11.03
2018-05-29T00:27:25.892Z,12.77
2018-05-29T00:29:54.172Z,9.77
2018-05-29T00:32:22.425Z,9.67
2018-05-29T00:34:49.900Z,9.90
2018-05-29T00:37:18.185Z,10.53
2018-05-29T00:39:46.466Z,9.80
2018-05-29T00:42:14.716Z,10.13
2018-05-29T00:44:42.227Z,10.53
2018-05-29T00:47:09.752Z,9.50
2018-05-29T00:49:38.003Z,10.77
2018-05-29T00:52:05.594Z,11.00
2018-05-29T00:54:33.854Z,10.20
2018-05-29T00:57:01.345Z,10.97
2018-05-29T00:59:30.625Z,10.57
2018-05-29T01:01:58.873Z,12.00
2018-05-29T01:04:26.359Z,10.50
2018-05-29T01:06:54.610Z,10.93
2018-05-29T01:09:22.110Z,10.83
2018-05-29T01:11:50.349Z,10.27
2018-05-29T01:14:17.828Z,10.47
2018-05-29T01:16:46.080Z,10.50
2018-05-29T01:19:13.567Z,10.33
2018-05-29T01:21:41.833Z,9.70
2018-05-29T01:24:10.113Z,10.07
2018-05-29T01:26:38.389Z,9.87
2018-05-29T01:29:07.213Z,10.30
2018-05-29T01:31:34.697Z,12.43
2018-05-29T01:34:02.213Z,11.63
2018-05-29T01:36:29.712Z,10.30
2018-05-29T01:38:57.212Z,9.90
2018-05-29T01:41:25.461Z,11.40
2018-05-29T01:43:52.972Z,10.73
2018-05-29T01:46:20.536Z,10.63
2018-05-29T01:48:48.070Z,10.33
2018-05-29T01:51:16.321Z,11.23
2018-05-29T01:53:43.871Z,10.13
2018-05-29T01:56:11.357Z,9.70
2018-05-29T01:58:39.638Z,10.80
2018-05-29T02:01:07.914Z,10.60
2018-05-29T02:03:36.162Z,10.43
2018-05-29T02:06:03.657Z,10.33
2018-05-29T02:08:31.912Z,10.53
2018-05-29T02:10:59.486Z,11.13
2018-05-29T02:13:27.757Z,10.73
2018-05-29T02:15:56.053Z,10.67
2018-05-29T02:18:24.238Z,10.97
2018-05-29T02:20:51.720Z,11.10
2018-05-29T02:23:19.220Z,10.67
2018-05-29T02:25:47.518Z,10.63
2018-05-29T02:28:15.773Z,10.80
2018-05-29T02:30:43.265Z,10.90
2018-05-29T02:33:10.820Z,11.30
2018-05-29T02:35:38.319Z,10.60
2018-05-29T02:38:05.805Z,11.23
2018-05-29T02:40:33.292Z,10.70
2018-05-29T02:43:01.566Z,11.87
2018-05-29T02:45:29.833Z,11.03
2018-05-29T02:47:58.108Z,11.13
2018-05-29T02:50:26.386Z,10.93
2018-05-29T02:52:54.633Z,11.07
2018-05-29T02:55:22.125Z,12.53
2018-05-29T02:57:50.395Z,11.60
2018-05-29T03:00:18.713Z,10.97
2018-05-29T03:02:46.198Z,13.57
2018-05-29T03:05:13.685Z,11.93
2018-05-29T03:07:41.941Z,11.73
2018-05-29T03:10:09.529Z,11.53
2018-05-29T03:12:37.798Z,11.63
2018-05-29T03:15:06.046Z,11.50
2018-05-29T03:17:33.535Z,11.47
2018-05-29T03:20:01.801Z,11.47
2018-05-29T03:22:30.071Z,12.10
2018-05-29T03:24:57.582Z,11.30
2018-05-29T03:27:25.072Z,11.80
2018-05-29T03:29:52.667Z,12.60
2018-05-29T03:32:20.928Z,11.70
2018-05-29T03:34:48.420Z,12.77
2018-05-29T03:37:15.961Z,12.50
2018-05-29T03:39:44.239Z,11.47
2018-05-29T03:42:12.518Z,11.53
2018-05-29T03:44:40.765Z,12.00
2018-05-29T03:47:08.249Z,11.33
2018-05-29T03:49:36.496Z,12.07
2018-05-29T03:52:03.987Z,15.07
2018-05-29T03:54:32.266Z,12.97
2018-05-29T03:57:00.514Z,13.00
2018-05-29T03:59:28.001Z,13.33
2018-05-29T04:01:56.251Z,14.70
2018-05-29T04:04:23.737Z,19.03
2018-05-29T04:06:51.221Z,14.43
2018-05-29T04:09:18.719Z,13.27
2018-05-29T04:11:46.403Z,12.63
2018-05-29T04:14:13.966Z,12.90
2018-05-29T04:16:41.625Z,13.00
2018-05-29T04:19:09.188Z,12.33
2018-05-29T04:21:36.665Z,14.53
2018-05-29T04:24:04.145Z,12.30
2018-05-29T04:26:31.645Z,12.20
2018-05-29T04:28:59.154Z,12.37
2018-05-29T04:31:26.716Z,14.00
2018-05-29T04:33:54.198Z,13.53
2018-05-29T04:36:21.684Z,13.80
2018-05-29T04:38:50.670Z,12.80
2018-05-29T04:41:18.157Z,14.60
2018-05-29T04:43:46.479Z,13.87
2018-05-29T04:46:13.945Z,15.17
2018-05-29T04:48:41.446Z,14.57
2018-05-29T04:51:09.713Z,11.90
2018-05-29T04:53:37.963Z,15.27
2018-05-29T04:56:05.453Z,14.27
2018-05-29T04:58:33.733Z,13.53
2018-05-29T05:01:02.007Z,11.57
2018-05-29T05:03:31.867Z,12.63
2018-05-29T05:05:59.389Z,11.57
2018-05-29T05:08:27.645Z,13.20
2018-05-29T05:10:55.221Z,10.70
2018-05-29T05:13:23.529Z,10.90
2018-05-29T05:15:51.087Z,10.13
2018-05-29T05:18:18.617Z,10.57
2018-05-29T05:20:46.876Z,10.37
2018-05-29T05:23:14.369Z,11.00
2018-05-29T05:25:41.911Z,10.23
2018-05-29T05:28:10.156Z,11.57
2018-05-29T05:30:37.700Z,12.43
2018-05-29T05:33:05.196Z,8.90
2018-05-29T05:35:32.955Z,10.27
2018-05-29T05:38:00.493Z,11.00
2018-05-29T05:40:27.985Z,13.10
2018-05-29T05:42:56.294Z,12.97
2018-05-29T05:45:23.799Z,11.13
2018-05-29T05:47:51.389Z,18.20
2018-05-29T05:50:19.660Z,18.60
2018-05-29T05:52:47.951Z,8.80
2018-05-29T05:55:16.211Z,13.83
2018-05-29T05:57:44.474Z,13.10
2018-05-29T06:00:12.045Z,11.07
2018-05-29T06:02:40.297Z,11.80
2018-05-29T06:05:07.828Z,13.00
2018-05-29T06:07:36.054Z,10.73
2018-05-29T06:10:03.538Z,11.40
2018-05-29T06:12:31.068Z,8.80
2018-05-29T06:14:58.626Z,8.97
2018-05-29T06:17:26.108Z,8.60
2018-05-29T06:19:54.345Z,8.17
2018-05-29T06:22:22.605Z,7.20
2018-05-29T06:24:50.076Z,10.27
2018-05-29T06:27:17.571Z,8.37
2018-05-29T06:29:45.817Z,7.67
2018-05-29T06:32:13.394Z,6.80
2018-05-29T06:34:41.645Z,9.77
2018-05-29T06:37:09.182Z,7.10
2018-05-29T06:39:36.661Z,7.50
2018-05-29T06:42:04.452Z,8.33
2018-05-29T06:44:31.924Z,7.57
2018-05-29T06:47:00.188Z,9.50
2018-05-29T06:49:28.457Z,8.87
2018-05-29T06:51:55.945Z,8.17
2018-05-29T06:54:23.436Z,6.63
2018-05-29T06:56:50.912Z,5.43
2018-05-29T06:59:18.393Z,5.93
2018-05-29T07:01:46.650Z,6.90
2018-05-29T07:04:14.130Z,6.20
2018-05-29T07:06:42.393Z,7.80
2018-05-29T07:09:09.864Z,8.73
2018-05-29T07:11:38.115Z,7.53
2018-05-29T07:14:05.590Z,8.33
2018-05-29T07:16:33.072Z,6.60
2018-05-29T07:19:01.311Z,7.30
2018-05-29T07:21:28.893Z,8.37
2018-05-29T07:23:57.183Z,6.17
2018-05-29T07:26:25.439Z,8.47
2018-05-29T07:28:52.926Z,6.73
2018-05-29T07:31:20.476Z,6.63
2018-05-29T07:33:48.731Z,9.93
2018-05-29T07:36:16.240Z,8.90
2018-05-29T07:38:43.720Z,8.70
2018-05-29T07:41:11.370Z,11.30
2018-05-29T07:43:38.874Z,5.50
2018-05-29T07:46:07.124Z,9.97
2018-05-29T07:48:34.606Z,6.97
2018-05-29T07:51:02.088Z,7.60
2018-05-29T07:53:29.850Z,11.47
2018-05-29T07:55:58.126Z,9.67
2018-05-29T07:58:26.396Z,9.67
2018-05-29T08:00:54.667Z,8.90
2018-05-29T08:03:22.955Z,9.80
2018-05-29T08:05:51.211Z,7.03
2018-05-29T08:08:18.689Z,7.53
2018-05-29T08:10:46.943Z,11.23
2018-05-29T08:13:14.420Z,9.43
2018-05-29T08:15:42.673Z,9.70
2018-05-29T08:18:10.148Z,9.57
2018-05-29T08:20:38.404Z,7.67
2018-05-29T08:23:07.417Z,6.30
2018-05-29T08:25:34.944Z,7.33
2018-05-29T08:28:02.417Z,7.93
2018-05-29T08:30:30.706Z,5.77
2018-05-29T08:32:58.958Z,7.57
2018-05-29T08:35:26.453Z,6.23
2018-05-29T08:37:54.729Z,7.27
2018-05-29T08:40:22.975Z,8.53
2018-05-29T08:42:50.453Z,9.03
2018-05-29T08:45:18.712Z,7.27
2018-05-29T08:47:46.294Z,7.20
2018-05-29T08:50:14.549Z,5.53
2018-05-29T08:52:43.566Z,7.50
2018-05-29T08:55:11.834Z,9.53
2018-05-29T08:57:40.149Z,7.53
2018-05-29T09:00:07.650Z,10.23
2018-05-29T09:02:35.121Z,8.53
2018-05-29T09:05:02.606Z,7.93
2018-05-29T09:07:30.860Z,8.60
2018-05-29T09:09:58.330Z,7.10
2018-05-29T09:12:26.609Z,6.50
2018-05-29T09:14:54.913Z,7.40
2018-05-29T09:17:22.397Z,5.30
2018-05-29T09:19:49.890Z,9.30
2018-05-29T09:22:18.172Z,6.93
2018-05-29T09:24:46.442Z,5.90
2018-05-29T09:27:14.691Z,6.87
2018-05-29T09:29:42.220Z,7.23
2018-05-29T09:32:10.455Z,6.13
2018-05-29T09:34:38.691Z,8.10
2018-05-29T09:37:06.193Z,6.90
2018-05-29T09:39:34.470Z,6.97
2018-05-29T09:42:02.735Z,7.17
2018-05-29T09:44:31.721Z,6.83
2018-05-29T09:46:59.215Z,6.17
2018-05-29T09:49:26.694Z,6.57
2018-05-29T09:51:54.181Z,6.37
2018-05-29T09:54:21.665Z,6.63
2018-05-29T09:56:49.157Z,8.73
2018-05-29T09:59:16.635Z,9.47
2018-05-29T10:01:44.127Z,6.60
2018-05-29T10:04:11.608Z,7.30
2018-05-29T10:06:39.861Z,7.37
2018-05-29T10:09:07.332Z,7.60
2018-05-29T10:11:34.817Z,11.23
2018-05-29T10:14:02.305Z,7.00
2018-05-29T10:16:29.802Z,7.40
2018-05-29T10:18:57.276Z,6.63
2018-05-29T10:21:25.530Z,7.10
2018-05-29T10:23:53.009Z,7.63
2018-05-29T10:26:21.256Z,7.10
2018-05-29T10:28:48.729Z,9.03
2018-05-29T10:31:16.209Z,9.43
2018-05-29T10:33:44.448Z,8.07
2018-05-29T10:36:11.942Z,6.77
2018-05-29T10:38:40.181Z,7.83
2018-05-29T10:41:07.676Z,6.40
2018-05-29T10:43:35.913Z,6.83
2018-05-29T10:46:04.225Z,8.07
2018-05-29T10:48:31.696Z,7.97
2018-05-29T10:50:59.193Z,7.80
2018-05-29T10:53:26.697Z,7.33
2018-05-29T10:55:54.957Z,9.10
2018-05-29T10:58:22.447Z,7.60
2018-05-29T11:00:49.936Z,7.97
2018-05-29T11:03:17.405Z,7.67
2018-05-29T11:05:44.891Z,8.23
2018-05-29T11:08:12.373Z,8.63
2018-05-29T11:10:40.680Z,7.47
2018-05-29T11:13:08.153Z,7.77
2018-05-29T11:15:35.656Z,8.43
2018-05-29T11:18:03.921Z,9.37
2018-05-29T11:20:32.181Z,7.87
2018-05-29T11:22:59.656Z,7.40
2018-05-29T11:25:27.131Z,7.37
2018-05-29T11:27:55.452Z,7.83
2018-05-29T11:30:22.936Z,8.27
2018-05-29T11:32:50.417Z,8.03
2018-05-29T11:35:18.670Z,7.70
2018-05-29T11:37:46.144Z,7.80
2018-05-29T11:40:13.633Z,7.47
2018-05-29T11:42:41.112Z,9.10
2018-05-29T11:45:08.603Z,7.30
2018-05-29T11:47:36.086Z,13.07
2018-05-29T11:50:04.412Z,8.00
2018-05-29T11:52:31.919Z,6.10
2018-05-29T11:55:00.474Z,6.80
2018-05-29T11:57:27.954Z,7.00
2018-05-29T11:59:55.432Z,6.17
2018-05-29T12:02:23.692Z,6.70
2018-05-29T12:04:51.972Z,6.87
2018-05-29T12:07:20.249Z,6.63
2018-05-29T12:09:48.499Z,7.83
2018-05-29T12:12:24.859Z,6.83
2018-05-29T12:14:52.369Z,6.90
2018-05-29T12:17:19.853Z,6.00
2018-05-29T12:19:47.325Z,6.23
2018-05-29T12:22:14.826Z,6.40
2018-05-29T12:24:43.071Z,6.37
2018-05-29T12:27:10.562Z,6.87
2018-05-29T12:29:38.804Z,6.90
2018-05-29T12:32:06.297Z,6.73
2018-05-29T12:34:34.544Z,6.87
2018-05-29T12:37:02.031Z,6.83
2018-05-29T12:39:30.271Z,7.03
2018-05-29T12:41:57.758Z,6.43
2018-05-29T12:44:26.000Z,6.60
2018-05-29T12:46:53.488Z,8.65
2018-05-29T12:49:20.961Z,6.55
2018-05-29T12:51:49.221Z,7.80
2018-05-29T12:54:16.701Z,6.40
2018-05-29T12:56:44.978Z,6.43
2018-05-29T12:59:13.244Z,6.53
2018-05-29T13:01:40.762Z,6.32
2018-05-29T13:04:09.054Z,6.68
2018-05-29T13:06:36.532Z,6.20
2018-05-29T13:09:06.404Z,6.50
2018-05-29T13:11:34.481Z,6.55
2018-05-29T13:14:01.974Z,6.43
2018-05-29T13:16:30.318Z,7.62
2018-05-29T13:18:58.156Z,6.68
2018-05-29T13:21:25.687Z,6.85
2018-05-29T13:23:54.197Z,6.60
2018-05-29T13:26:21.995Z,6.75
2018-05-29T13:28:49.905Z,6.60
2018-05-29T13:31:18.173Z,6.77
2018-05-29T13:33:46.774Z,6.77
2018-05-29T13:36:14.291Z,8.40
2018-05-29T13:38:41.774Z,7.90
2018-05-29T13:41:10.025Z,7.93
2018-05-29T13:43:37.504Z,7.23
2018-05-29T13:46:04.985Z,7.27
2018-05-29T13:48:32.468Z,9.10
2018-05-29T13:50:59.981Z,8.40
2018-05-29T13:53:28.229Z,7.60
2018-05-29T13:55:55.735Z,8.00
2018-05-29T13:58:23.209Z,6.73
2018-05-29T14:00:50.705Z,6.30
2018-05-29T14:03:18.189Z,6.60
2018-05-29T14:05:46.465Z,6.87
2018-05-29T14:08:13.990Z,7.37
2018-05-29T14:10:41.482Z,7.87
2018-05-29T14:13:09.005Z,7.97
2018-05-29T14:15:36.507Z,7.23
2018-05-29T14:18:04.780Z,8.40
2018-05-29T14:20:33.025Z,6.37
2018-05-29T14:23:00.507Z,7.43
2018-05-29T14:25:28.006Z,7.03
2018-05-29T14:27:55.500Z,8.70
2018-05-29T14:30:22.993Z,6.30
2018-05-29T14:32:51.245Z,7.00
2018-05-29T14:35:18.769Z,6.60
2018-05-29T14:37:46.262Z,7.13
2018-05-29T14:40:13.758Z,8.37
2018-05-29T14:42:41.258Z,8.70
2018-05-29T14:45:08.737Z,7.93
2018-05-29T14:47:36.234Z,8.93
2018-05-29T14:50:03.741Z,7.40
2018-05-29T14:52:32.024Z,7.77
2018-05-29T14:55:00.278Z,7.40
2018-05-29T14:57:27.760Z,6.90
2018-05-29T14:59:55.279Z,7.57
2018-05-29T15:02:22.767Z,8.53
2018-05-29T15:04:50.243Z,7.57
2018-05-29T15:07:17.733Z,6.80
2018-05-29T15:09:45.983Z,7.63
2018-05-29T15:12:13.476Z,7.17
2018-05-29T15:14:40.959Z,7.10
2018-05-29T15:17:08.471Z,7.20
2018-05-29T15:19:35.958Z,6.73
2018-05-29T15:22:03.473Z,7.40
2018-05-29T15:24:30.959Z,6.60
2018-05-29T15:26:58.440Z,9.00
2018-05-29T15:29:25.912Z,8.67
2018-05-29T15:31:53.400Z,7.87
2018-05-29T15:34:20.873Z,8.43
2018-05-29T15:36:49.124Z,7.53
2018-05-29T15:39:16.600Z,6.53
2018-05-29T15:41:44.113Z,7.77
2018-05-29T15:44:11.585Z,7.10
2018-05-29T15:46:39.074Z,7.00
2018-05-29T15:49:06.557Z,7.57
2018-05-29T15:51:34.816Z,8.30
2018-05-29T15:54:02.329Z,7.10
2018-05-29T15:56:29.833Z,7.30
2018-05-29T15:58:57.306Z,7.03
2018-05-29T16:01:25.560Z,9.23
2018-05-29T16:03:53.043Z,8.03
2018-05-29T16:06:21.353Z,7.33
2018-05-29T16:08:48.831Z,7.50
2018-05-29T16:11:16.346Z,8.13
2018-05-29T16:13:43.854Z,11.93
2018-05-29T16:16:11.386Z,9.93
2018-05-29T16:18:38.925Z,9.20
2018-05-29T16:21:06.514Z,7.63
2018-05-29T16:23:34.015Z,7.33
2018-05-29T16:26:01.492Z,7.63
2018-05-29T16:28:29.756Z,8.97
2018-05-29T16:30:58.025Z,9.30
2018-05-29T16:33:26.172Z,10.57
2018-05-29T16:35:53.672Z,12.80
2018-05-29T16:38:21.921Z,18.57
2018-05-29T16:40:49.478Z,14.07
2018-05-29T16:43:16.913Z,9.07
2018-05-29T16:45:44.417Z,14.40
2018-05-29T16:48:12.658Z,8.80
2018-05-29T16:50:40.149Z,22.13
2018-05-29T16:53:08.397Z,9.27
2018-05-29T16:55:35.880Z,9.40
2018-05-29T16:58:03.355Z,10.73
2018-05-29T17:00:31.604Z,11.20
2018-05-29T17:02:59.083Z,17.87
2018-05-29T17:05:27.357Z,13.37
2018-05-29T17:07:55.608Z,20.27
2018-05-29T17:10:23.101Z,12.50
2018-05-29T17:12:51.400Z,13.43
2018-05-29T17:15:18.964Z,14.37
2018-05-29T17:17:46.397Z,16.07
2018-05-29T17:20:14.869Z,14.50
2018-05-29T17:22:42.351Z,13.13
2018-05-29T17:25:09.851Z,10.87
2018-05-29T17:27:37.359Z,10.93
2018-05-29T17:30:04.872Z,8.93
2018-05-29T17:32:32.354Z,8.10
2018-05-29T17:35:00.603Z,8.67
2018-05-29T17:37:28.085Z,8.33
2018-05-29T17:39:56.341Z,8.83
2018-05-29T17:42:23.857Z,8.50
2018-05-29T17:44:52.073Z,8.37
2018-05-29T17:47:19.553Z,9.70
2018-05-29T17:49:47.828Z,10.23
2018-05-29T17:52:16.093Z,10.53
2018-05-29T17:54:43.596Z,9.27
2018-05-29T17:57:11.079Z,14.97
2018-05-29T17:59:39.385Z,22.83
2018-05-29T18:02:06.872Z,13.67
2018-05-29T18:04:35.120Z,9.83
2018-05-29T18:07:02.612Z,9.57
2018-05-29T18:09:30.856Z,9.80
2018-05-29T18:11:58.397Z,10.07
2018-05-29T18:14:25.881Z,10.50
2018-05-29T18:16:53.391Z,10.50
2018-05-29T18:19:20.910Z,9.90
2018-05-29T18:21:49.760Z,10.43
2018-05-29T18:24:17.294Z,9.97
2018-05-29T18:26:44.808Z,10.00
2018-05-29T18:29:12.283Z,12.97
2018-05-29T18:31:40.555Z,15.93
2018-05-29T18:34:08.808Z,10.03
2018-05-29T18:36:38.640Z,10.07
2018-05-29T18:39:06.950Z,10.17
2018-05-29T18:41:34.545Z,10.73
2018-05-29T18:44:02.133Z,10.53
2018-05-29T18:46:30.394Z,10.50
2018-05-29T18:48:57.884Z,10.57
2018-05-29T18:51:25.420Z,10.90
2018-05-29T18:53:53.786Z,10.63
2018-05-29T18:56:21.289Z,10.97
2018-05-29T18:58:48.876Z,11.53
2018-05-29T19:01:16.617Z,11.53
2018-05-29T19:03:44.097Z,10.87
2018-05-29T19:06:11.936Z,11.43
2018-05-29T19:08:39.423Z,10.63
2018-05-29T19:11:06.917Z,11.20
2018-05-29T19:13:34.517Z,11.00
2018-05-29T19:16:02.007Z,11.80
2018-05-29T19:18:29.489Z,10.90
2018-05-29T19:20:56.990Z,12.87
2018-05-29T19:23:24.471Z,11.87
2018-05-29T19:25:51.971Z,12.10
2018-05-29T19:28:19.469Z,11.63
2018-05-29T19:30:46.969Z,11.63
2018-05-29T19:33:14.497Z,11.27
2018-05-29T19:35:42.041Z,12.13
2018-05-29T19:38:09.553Z,12.70
2018-05-29T19:40:37.046Z,11.40
2018-05-29T19:43:05.355Z,11.80
2018-05-29T19:45:32.848Z,12.40
2018-05-29T19:48:00.354Z,12.00
2018-05-29T19:50:28.760Z,11.93
2018-05-29T19:52:57.124Z,12.53
2018-05-29T19:55:24.728Z,14.33
2018-05-29T19:57:52.235Z,13.20
2018-05-29T20:00:19.857Z,12.27
2018-05-29T20:02:47.372Z,12.23
2018-05-29T20:05:14.989Z,12.03
2018-05-29T20:07:42.536Z,12.10
2018-05-29T20:10:10.178Z,12.03
2018-05-29T20:12:37.841Z,11.93
2018-05-29T20:15:05.393Z,12.40
2018-05-29T20:17:33.658Z,12.50
2018-05-29T20:20:01.373Z,12.80
2018-05-29T20:22:28.841Z,11.67
2018-05-29T20:24:57.120Z,12.53
2018-05-29T20:27:25.369Z,13.00
2018-05-29T20:29:52.869Z,12.77
2018-05-29T20:32:20.401Z,12.60
2018-05-29T20:34:48.807Z,13.17
2018-05-29T20:37:16.365Z,12.43
2018-05-29T20:39:43.873Z,12.57
2018-05-29T20:42:11.388Z,14.93
2018-05-29T20:44:38.917Z,12.97
2018-05-29T20:47:06.497Z,11.83
2018-05-29T20:49:34.011Z,12.20
2018-05-29T20:52:01.537Z,12.07
2018-05-29T20:54:29.062Z,12.10
2018-05-29T20:56:57.328Z,12.00
2018-05-29T20:59:25.702Z,12.07
2018-05-29T21:01:53.349Z,12.10
2018-05-29T21:04:20.885Z,12.23
2018-05-29T21:06:48.370Z,12.20
2018-05-29T21:09:15.938Z,11.27
2018-05-29T21:11:43.458Z,11.07
2018-05-29T21:14:10.961Z,11.53
2018-05-29T21:16:38.487Z,12.50
2018-05-29T21:19:05.985Z,11.67
2018-05-29T21:21:34.275Z,11.70
2018-05-29T21:24:02.547Z,11.83
2018-05-29T21:26:30.797Z,11.67
2018-05-29T21:28:58.326Z,11.47
2018-05-29T21:31:25.813Z,11.53
2018-05-29T21:33:53.314Z,12.10
2018-05-29T21:36:20.826Z,12.00
2018-05-29T21:38:48.361Z,11.97
2018-05-29T21:41:15.880Z,11.53
2018-05-29T21:43:44.169Z,11.60
2018-05-29T21:46:11.674Z,10.80
2018-05-29T21:48:39.168Z,10.90
2018-05-29T21:51:07.589Z,10.80
2018-05-29T21:53:35.104Z,10.60
2018-05-29T21:56:03.481Z,10.93
2018-05-29T21:58:31.746Z,10.47
2018-05-29T22:00:59.328Z,11.10
2018-05-29T22:03:27.605Z,10.90
2018-05-29T22:05:55.857Z,10.93
2018-05-29T22:08:23.365Z,10.93
2018-05-29T22:10:50.882Z,10.30
2018-05-29T22:13:18.388Z,10.47
2018-05-29T22:15:45.881Z,9.90
2018-05-29T22:18:13.366Z,10.83
2018-05-29T22:20:41.626Z,10.33
2018-05-29T22:23:09.113Z,10.27
2018-05-29T22:25:37.389Z,11.03
2018-05-29T22:28:04.873Z,10.60
2018-05-29T22:30:32.485Z,10.43
2018-05-29T22:33:00.052Z,10.33
2018-05-29T22:35:28.372Z,10.90
2018-05-29T22:37:55.869Z,10.83
2018-05-29T22:40:23.352Z,9.80
2018-05-29T22:42:51.594Z,10.10
2018-05-29T22:45:19.085Z,10.33
2018-05-29T22:47:47.337Z,10.17
2018-05-29T22:50:14.829Z,9.97
2018-05-29T22:52:43.081Z,10.57
2018-05-29T22:55:10.577Z,10.70
2018-05-29T22:57:38.092Z,10.10
2018-05-29T23:00:05.609Z,10.83
2018-05-29T23:02:33.093Z,10.80
2018-05-29T23:05:00.592Z,10.87
2018-05-29T23:07:28.884Z,10.60
2018-05-29T23:09:56.425Z,10.93
2018-05-29T23:12:24.706Z,11.40
2018-05-29T23:14:53.694Z,11.33
2018-05-29T23:17:21.950Z,11.63
2018-05-29T23:19:49.459Z,11.07
2018-05-29T23:22:16.946Z,11.23
2018-05-29T23:24:44.455Z,11.20
2018-05-29T23:27:12.714Z,12.13
2018-05-29T23:29:40.217Z,11.90
2018-05-29T23:32:07.708Z,11.47
2018-05-29T23:34:35.206Z,11.97
2018-05-29T23:37:03.462Z,11.90
2018-05-29T23:39:30.962Z,11.47
2018-05-29T23:41:58.455Z,12.80
2018-05-29T23:44:25.966Z,12.53
2018-05-29T23:46:53.457Z,13.07
2018-05-29T23:49:20.966Z,12.83
2018-05-29T23:51:49.277Z,12.63
2018-05-29T23:54:16.785Z,13.17
2018-05-29T23:56:44.306Z,12.70
2018-05-29T23:59:11.825Z,13.03
